createdAt,value
2023-03-13T00:01:36.253Z,7.70
2023-03-13T00:04:38.761Z,7.35
2023-03-13T00:07:41.336Z,6.88
2023-03-13T00:10:43.724Z,6.70
2023-03-13T00:13:46.169Z,7.60
2023-03-13T00:16:48.478Z,7.28
2023-03-13T00:19:51.417Z,9.38
2023-03-13T00:22:53.882Z,7.72
2023-03-13T00:26:00.846Z,7.70
2023-03-13T00:29:03.267Z,8.15
2023-03-13T00:32:06.287Z,7.85
2023-03-13T00:35:09.179Z,7.47
2023-03-13T00:38:11.976Z,7.97
2023-03-13T00:41:16.942Z,8.63
2023-03-13T00:44:19.403Z,7.75
2023-03-13T00:47:23.202Z,7.85
2023-03-13T00:50:25.580Z,10.90
2023-03-13T00:53:28.525Z,8.75
2023-03-13T00:56:31.116Z,8.63
2023-03-13T00:59:33.963Z,6.93
2023-03-13T01:02:42.358Z,8.05
2023-03-13T01:05:45.566Z,7.13
2023-03-13T01:08:48.139Z,7.20
2023-03-13T01:11:50.480Z,6.47
2023-03-13T01:14:52.840Z,6.75
2023-03-13T01:17:57.784Z,6.45
2023-03-13T01:21:00.059Z,6.95
2023-03-13T01:24:02.709Z,6.60
2023-03-13T01:27:05.136Z,8.05
2023-03-13T01:30:08.234Z,7.22
2023-03-13T01:33:10.777Z,6.40
2023-03-13T01:36:13.476Z,8.77
2023-03-13T01:39:17.621Z,8.25
2023-03-13T01:42:20.023Z,9.07
2023-03-13T01:45:59.359Z,9.50
2023-03-13T01:49:12.787Z,9.07
2023-03-13T01:52:37.593Z,9.93
2023-03-13T01:55:48.237Z,10.80
2023-03-13T01:58:51.970Z,10.88
2023-03-13T02:01:58.374Z,11.55
2023-03-13T02:05:02.562Z,11.15
2023-03-13T02:08:24.342Z,12.30
2023-03-13T02:11:45.061Z,11.85
2023-03-13T02:14:47.982Z,11.13
2023-03-13T02:17:52.278Z,12.80
2023-03-13T02:20:58.074Z,12.87
2023-03-13T02:24:22.326Z,11.88
2023-03-13T02:27:25.000Z,11.63
2023-03-13T02:30:28.630Z,13.23
2023-03-13T02:33:33.471Z,9.90
2023-03-13T02:36:35.883Z,12.50
2023-03-13T02:39:40.017Z,12.02
2023-03-13T02:42:44.665Z,12.75
2023-03-13T02:46:03.788Z,12.38
2023-03-13T02:49:29.505Z,11.55
2023-03-13T02:52:42.192Z,11.63
2023-03-13T02:55:45.780Z,11.65
2023-03-13T02:58:50.409Z,11.43
2023-03-13T03:01:56.933Z,12.27
2023-03-13T03:04:59.484Z,12.13
2023-03-13T03:08:02.113Z,12.95
2023-03-13T03:11:06.484Z,12.07
2023-03-13T03:14:09.952Z,13.80
2023-03-13T03:17:17.692Z,13.27
2023-03-13T03:20:20.032Z,12.45
2023-03-13T03:23:22.940Z,13.38
2023-03-13T03:26:25.353Z,13.35
2023-03-13T03:29:28.158Z,14.13
2023-03-13T03:32:31.824Z,13.52
2023-03-13T03:35:38.670Z,11.50
2023-03-13T03:38:43.344Z,13.60
2023-03-13T03:41:47.942Z,13.45
2023-03-13T03:44:50.468Z,14.13
2023-03-13T03:47:54.121Z,13.50
2023-03-13T03:50:57.448Z,13.57
2023-03-13T03:54:00.527Z,13.07
2023-03-13T03:57:05.897Z,13.90
2023-03-13T04:00:12.234Z,11.68
2023-03-13T04:03:15.534Z,13.43
2023-03-13T04:06:18.700Z,15.32
2023-03-13T04:09:22.069Z,15.57
2023-03-13T04:12:24.383Z,15.00
2023-03-13T04:15:28.963Z,15.15
2023-03-13T04:18:31.742Z,15.63
2023-03-13T04:21:34.519Z,14.02
2023-03-13T04:24:41.961Z,14.43
2023-03-13T04:27:44.781Z,15.10
2023-03-13T04:30:47.244Z,16.42
2023-03-13T04:34:16.825Z,15.93
2023-03-13T04:37:54.549Z,17.10
2023-03-13T04:41:22.951Z,16.38
2023-03-13T04:44:43.447Z,16.52
2023-03-13T04:48:13.855Z,19.35
2023-03-13T04:51:27.615Z,20.27
2023-03-13T04:54:45.761Z,18.60
2023-03-13T04:58:07.056Z,24.58
2023-03-13T05:01:16.277Z,19.88
2023-03-13T05:04:46.705Z,22.23
2023-03-13T05:08:11.008Z,21.52
2023-03-13T05:11:52.013Z,20.63
2023-03-13T05:15:26.681Z,22.15
2023-03-13T05:18:52.000Z,23.65
2023-03-13T05:22:09.555Z,23.70
2023-03-13T05:25:11.940Z,23.13
2023-03-13T05:28:26.641Z,24.17
2023-03-13T05:31:48.719Z,25.50
2023-03-13T05:35:11.443Z,28.15
2023-03-13T05:38:32.764Z,24.63
2023-03-13T05:41:57.503Z,26.25
2023-03-13T05:45:13.036Z,31.02
2023-03-13T05:48:45.762Z,30.17
2023-03-13T05:52:18.438Z,30.98
2023-03-13T05:55:33.699Z,25.35
2023-03-13T05:59:02.198Z,25.60
2023-03-13T06:02:27.112Z,26.10
2023-03-13T06:05:30.091Z,27.15
2023-03-13T06:08:33.822Z,28.25
2023-03-13T06:11:36.800Z,28.83
2023-03-13T06:14:40.966Z,27.38
2023-03-13T06:18:01.770Z,30.75
2023-03-13T06:21:04.438Z,26.55
2023-03-13T06:24:07.348Z,28.08
2023-03-13T06:27:09.632Z,27.30
2023-03-13T06:30:12.861Z,28.15
2023-03-13T06:33:15.596Z,27.90
2023-03-13T06:36:18.513Z,29.70
2023-03-13T06:39:21.093Z,28.80
2023-03-13T06:42:23.399Z,34.33
2023-03-13T06:45:26.013Z,34.28
2023-03-13T06:48:28.460Z,35.78
2023-03-13T06:51:31.119Z,41.20
2023-03-13T06:54:33.813Z,37.83
2023-03-13T06:57:36.116Z,38.63
2023-03-13T07:00:40.899Z,41.35
2023-03-13T07:03:43.701Z,35.95
2023-03-13T07:06:46.858Z,36.30
2023-03-13T07:09:49.351Z,31.93
2023-03-13T07:12:51.738Z,36.95
2023-03-13T07:15:54.648Z,37.58
2023-03-13T07:18:57.059Z,38.65
2023-03-13T07:21:59.765Z,38.45
2023-03-13T07:25:02.291Z,34.42
2023-03-13T07:28:04.760Z,38.72
2023-03-13T07:31:09.816Z,33.20
2023-03-13T07:34:12.292Z,33.67
2023-03-13T07:37:15.714Z,35.05
2023-03-13T07:40:18.217Z,32.60
2023-03-13T07:43:21.099Z,39.90
2023-03-13T07:46:23.700Z,33.55
2023-03-13T07:49:26.365Z,35.83
2023-03-13T07:52:28.765Z,32.95
2023-03-13T07:55:31.305Z,33.38
2023-03-13T07:58:36.516Z,33.80
2023-03-13T08:01:38.979Z,36.45
2023-03-13T08:04:41.296Z,40.05
2023-03-13T08:07:45.457Z,41.53
2023-03-13T08:13:50.256Z,41.03
2023-03-13T08:16:52.710Z,38.80
2023-03-13T08:19:55.069Z,35.17
2023-03-13T08:22:58.117Z,34.67
2023-03-13T08:26:06.900Z,37.00
2023-03-13T08:29:15.022Z,36.08
2023-03-13T08:32:18.445Z,37.53
2023-03-13T08:35:20.964Z,34.00
2023-03-13T08:38:23.725Z,31.52
2023-03-13T08:41:32.337Z,30.52
2023-03-13T08:44:34.673Z,34.75
2023-03-13T08:47:37.151Z,28.27
2023-03-13T08:50:39.491Z,33.10
2023-03-13T08:53:44.229Z,28.00
2023-03-13T08:56:47.094Z,31.38
2023-03-13T08:59:50.807Z,27.92
2023-03-13T09:02:53.362Z,26.92
2023-03-13T09:05:58.301Z,25.75
2023-03-13T09:09:00.851Z,25.52
2023-03-13T09:12:04.499Z,24.10
2023-03-13T09:15:07.838Z,22.13
2023-03-13T09:18:10.781Z,20.67
2023-03-13T09:21:15.807Z,22.70
2023-03-13T09:24:18.394Z,22.42
2023-03-13T09:27:20.794Z,21.33
2023-03-13T09:30:23.144Z,29.27
2023-03-13T09:33:25.609Z,20.38
2023-03-13T09:36:28.879Z,22.00
2023-03-13T09:39:31.209Z,21.08
2023-03-13T09:42:44.929Z,18.42
2023-03-13T09:45:49.360Z,24.33
2023-03-13T09:48:58.292Z,37.22
2023-03-13T09:52:05.478Z,24.30
2023-03-13T09:55:20.616Z,21.58
2023-03-13T09:58:25.095Z,16.90
2023-03-13T10:01:31.514Z,15.57
2023-03-13T10:04:42.672Z,16.85
2023-03-13T10:07:45.114Z,15.73
2023-03-13T10:11:01.886Z,12.70
2023-03-13T10:14:40.503Z,12.50
2023-03-13T10:17:43.046Z,11.00
2023-03-13T10:20:48.569Z,12.90
2023-03-13T10:24:02.198Z,11.80
2023-03-13T10:27:04.630Z,11.77
2023-03-13T10:30:07.737Z,12.63
2023-03-13T10:33:18.451Z,11.52
2023-03-13T10:36:20.822Z,13.25
2023-03-13T10:39:24.628Z,12.57
2023-03-13T10:42:36.490Z,12.85
2023-03-13T10:45:39.093Z,10.95
2023-03-13T10:48:42.261Z,11.25
2023-03-13T10:51:50.152Z,10.68
2023-03-13T10:55:00.187Z,11.95
2023-03-13T10:58:04.411Z,11.60
2023-03-13T11:04:39.696Z,10.23
2023-03-13T11:07:42.186Z,10.13
2023-03-13T11:11:00.413Z,13.20
2023-03-13T11:14:09.039Z,13.13
2023-03-13T11:17:13.938Z,12.30
2023-03-13T11:20:29.440Z,12.00
2023-03-13T11:23:48.323Z,13.38
2023-03-13T11:27:05.556Z,13.20
2023-03-13T11:30:20.054Z,15.68
2023-03-13T11:33:34.297Z,18.23
2023-03-13T11:36:41.663Z,13.95
2023-03-13T11:40:08.251Z,16.30
2023-03-13T11:43:24.562Z,15.35
2023-03-13T11:46:34.048Z,13.60
2023-03-13T11:50:04.313Z,16.52
2023-03-13T11:53:29.053Z,16.15
2023-03-13T11:56:54.547Z,15.32
2023-03-13T12:00:18.257Z,14.85
2023-03-13T12:03:34.952Z,14.32
2023-03-13T12:06:42.480Z,16.77
2023-03-13T12:09:54.967Z,15.20
2023-03-13T12:13:04.229Z,16.10
2023-03-13T12:16:14.331Z,16.23
2023-03-13T12:19:22.671Z,18.73
2023-03-13T12:22:41.089Z,29.88
2023-03-13T12:25:57.748Z,24.33
2023-03-13T12:29:21.318Z,17.83
2023-03-13T12:32:46.441Z,17.48
2023-03-13T12:35:54.703Z,19.48
2023-03-13T12:39:03.826Z,19.90
2023-03-13T12:42:21.262Z,26.63
2023-03-13T12:45:26.402Z,24.00
2023-03-13T12:49:13.786Z,18.52
2023-03-13T12:52:46.537Z,20.02
2023-03-13T12:56:10.544Z,18.52
2023-03-13T12:59:20.078Z,19.10
2023-03-13T13:02:25.202Z,16.42
2023-03-13T13:05:27.681Z,17.30
2023-03-13T13:08:35.562Z,19.23
2023-03-13T13:11:38.474Z,18.70
2023-03-13T13:14:57.686Z,21.52
2023-03-13T13:18:11.455Z,17.90
2023-03-13T13:21:18.232Z,21.08
2023-03-13T13:24:40.465Z,24.23
2023-03-13T13:27:42.807Z,28.13
2023-03-13T13:30:45.658Z,30.40
2023-03-13T13:33:48.424Z,28.20
2023-03-13T13:36:52.022Z,34.35
2023-03-13T13:39:55.294Z,32.10
2023-03-13T13:43:02.694Z,24.80
2023-03-13T13:46:30.136Z,19.17
2023-03-13T13:49:34.983Z,14.90
2023-03-13T13:52:41.657Z,16.95
2023-03-13T13:55:45.148Z,14.23
2023-03-13T13:58:47.817Z,15.18
2023-03-13T14:02:13.737Z,14.40
2023-03-13T14:05:22.744Z,14.27
2023-03-13T14:08:41.318Z,18.35
2023-03-13T14:11:43.998Z,14.80
2023-03-13T14:14:46.363Z,13.27
2023-03-13T14:17:53.490Z,14.45
2023-03-13T14:21:01.825Z,14.20
2023-03-13T14:24:13.937Z,12.10
2023-03-13T14:27:18.188Z,11.95
2023-03-13T14:33:26.984Z,11.07
2023-03-13T14:36:30.320Z,11.77
2023-03-13T14:39:33.022Z,11.65
2023-03-13T14:42:46.151Z,14.65
2023-03-13T14:45:49.833Z,12.02
2023-03-13T14:48:55.948Z,12.00
2023-03-13T14:52:19.258Z,12.65
2023-03-13T14:55:22.111Z,12.77
2023-03-13T14:58:25.532Z,12.27
2023-03-13T15:01:30.961Z,11.55
2023-03-13T15:05:28.830Z,11.77
2023-03-13T15:08:31.514Z,11.52
2023-03-13T15:11:34.944Z,10.43
2023-03-13T15:14:39.850Z,10.45
2023-03-13T15:17:42.569Z,10.95
2023-03-13T15:20:45.012Z,10.57
2023-03-13T15:24:14.508Z,10.75
2023-03-13T15:27:22.095Z,10.77
2023-03-13T15:30:24.606Z,9.60
2023-03-13T15:33:30.270Z,9.93
2023-03-13T15:36:32.671Z,10.07
2023-03-13T15:39:35.397Z,13.55
2023-03-13T15:42:37.764Z,16.45
2023-03-13T15:45:42.305Z,15.95
2023-03-13T15:48:44.685Z,15.52
2023-03-13T15:51:47.092Z,18.45
2023-03-13T15:54:50.572Z,17.00
2023-03-13T15:57:52.905Z,18.90
2023-03-13T16:00:56.224Z,16.48
2023-03-13T16:04:00.810Z,14.73
2023-03-13T16:07:03.439Z,13.95
2023-03-13T16:10:13.433Z,16.75
2023-03-13T16:13:16.333Z,16.58
2023-03-13T16:16:22.949Z,14.77
2023-03-13T16:19:26.125Z,17.10
2023-03-13T16:22:29.528Z,18.45
2023-03-13T16:25:32.448Z,19.80
2023-03-13T16:28:34.870Z,19.15
2023-03-13T16:31:37.404Z,20.90
2023-03-13T16:34:40.036Z,19.95
2023-03-13T16:37:42.504Z,19.73
2023-03-13T16:40:46.410Z,22.88
2023-03-13T16:43:49.396Z,20.35
2023-03-13T16:47:04.779Z,19.35
2023-03-13T16:50:35.729Z,19.95
2023-03-13T16:53:38.051Z,25.58
2023-03-13T16:56:43.396Z,21.73
2023-03-13T16:59:46.021Z,17.02
2023-03-13T17:02:50.349Z,15.70
2023-03-13T17:05:52.986Z,16.90
2023-03-13T17:08:56.374Z,14.68
2023-03-13T17:11:58.874Z,15.47
2023-03-13T17:15:01.373Z,14.85
2023-03-13T17:18:04.116Z,16.30
2023-03-13T17:21:07.166Z,15.90
2023-03-13T17:24:09.723Z,15.70
2023-03-13T17:27:14.051Z,15.10
2023-03-13T17:30:20.895Z,14.35
2023-03-13T17:33:23.832Z,15.48
2023-03-13T17:36:27.722Z,14.18
2023-03-13T17:39:30.259Z,14.52
2023-03-13T17:42:32.817Z,14.25
2023-03-13T17:45:37.097Z,14.50
2023-03-13T17:51:42.556Z,12.73
2023-03-13T17:54:45.896Z,13.30
2023-03-13T17:57:49.046Z,11.27
2023-03-13T18:00:51.736Z,13.05
2023-03-13T18:03:54.384Z,12.18
2023-03-13T18:06:56.891Z,12.63
2023-03-13T18:09:59.636Z,15.18
2023-03-13T18:13:01.920Z,12.52
2023-03-13T18:16:16.431Z,12.00
2023-03-13T18:22:25.488Z,15.48
2023-03-13T18:25:28.700Z,16.13
2023-03-13T18:28:31.155Z,14.02
2023-03-13T18:31:36.245Z,16.95
2023-03-13T18:34:38.924Z,17.45
2023-03-13T18:37:43.802Z,12.25
2023-03-13T18:40:46.374Z,13.98
2023-03-13T18:43:49.553Z,16.05
2023-03-13T18:46:53.180Z,19.25
2023-03-13T18:49:55.864Z,17.67
2023-03-13T18:53:00.210Z,18.15
2023-03-13T18:59:05.410Z,17.17
2023-03-13T19:02:09.657Z,13.88
2023-03-13T19:08:14.816Z,13.18
2023-03-13T19:11:19.902Z,15.25
2023-03-13T19:14:22.343Z,10.23
2023-03-13T19:17:31.392Z,18.75
2023-03-13T19:20:34.059Z,17.15
2023-03-13T19:23:36.831Z,13.43
2023-03-13T19:26:43.030Z,14.45
2023-03-13T19:29:46.598Z,13.32
2023-03-13T19:32:49.074Z,11.55
2023-03-13T19:35:51.594Z,12.75
2023-03-13T19:38:54.135Z,12.52
2023-03-13T19:41:58.574Z,10.70
2023-03-13T19:45:01.591Z,11.15
2023-03-13T19:48:04.456Z,11.73
2023-03-13T19:51:06.887Z,11.77
2023-03-13T19:54:13.118Z,13.23
2023-03-13T19:57:15.580Z,10.60
2023-03-13T20:00:23.531Z,11.85
2023-03-13T20:03:26.116Z,11.32
2023-03-13T20:06:33.387Z,10.85
2023-03-13T20:09:36.765Z,8.88
2023-03-13T20:12:39.383Z,10.77
2023-03-13T20:15:42.304Z,13.98
2023-03-13T20:18:47.658Z,9.13
2023-03-13T20:21:50.029Z,12.63
2023-03-13T20:24:53.679Z,12.30
2023-03-13T20:27:56.113Z,14.13
2023-03-13T20:30:58.539Z,16.55
2023-03-13T20:34:01.187Z,10.57
2023-03-13T20:37:04.044Z,12.18
2023-03-13T20:40:13.183Z,10.32
2023-03-13T20:43:15.634Z,8.57
2023-03-13T20:46:18.360Z,11.48
2023-03-13T20:49:21.181Z,9.02
2023-03-13T20:52:23.623Z,8.77
2023-03-13T20:55:26.148Z,8.65
2023-03-13T20:58:28.499Z,8.75
2023-03-13T21:01:32.275Z,8.65
2023-03-13T21:04:35.236Z,8.75
2023-03-13T21:07:37.647Z,8.73
2023-03-13T21:10:41.054Z,9.80
2023-03-13T21:13:43.569Z,8.73
2023-03-13T21:16:47.078Z,10.10
2023-03-13T21:19:49.512Z,7.57
2023-03-13T21:22:52.048Z,7.80
2023-03-13T21:25:59.527Z,9.00
2023-03-13T21:29:02.330Z,8.15
2023-03-13T21:32:05.077Z,8.45
2023-03-13T21:35:09.420Z,8.05
2023-03-13T21:38:11.808Z,7.03
2023-03-13T21:41:16.763Z,7.07
2023-03-13T21:44:19.731Z,7.88
2023-03-13T21:47:24.587Z,8.10
2023-03-13T21:50:27.082Z,7.22
2023-03-13T21:53:29.478Z,6.32
2023-03-13T21:56:31.958Z,6.75
2023-03-13T21:59:34.320Z,6.93
2023-03-13T22:02:37.377Z,7.05
2023-03-13T22:05:44.444Z,7.22
2023-03-13T22:08:47.312Z,7.47
2023-03-13T22:11:49.674Z,7.15
2023-03-13T22:14:52.461Z,7.45
2023-03-13T22:17:54.909Z,6.38
2023-03-13T22:20:58.513Z,8.63
2023-03-13T22:24:00.855Z,7.93
2023-03-13T22:27:03.237Z,6.93
2023-03-13T22:30:06.310Z,8.55
2023-03-13T22:33:08.843Z,11.77
2023-03-13T22:36:11.730Z,6.75
2023-03-13T22:39:14.074Z,7.85
2023-03-13T22:42:16.346Z,8.52
2023-03-13T22:45:19.858Z,8.55
2023-03-13T22:48:22.356Z,5.82
2023-03-13T22:51:24.847Z,7.65
2023-03-13T22:54:27.123Z,7.50
2023-03-13T22:57:29.684Z,7.65
2023-03-13T23:00:33.212Z,7.20
2023-03-13T23:03:36.267Z,6.07
2023-03-13T23:06:38.813Z,6.38
2023-03-13T23:09:41.164Z,6.85
2023-03-13T23:12:43.592Z,7.80
2023-03-13T23:16:01.229Z,6.47
2023-03-13T23:19:03.997Z,6.90
2023-03-13T23:22:06.360Z,6.90
2023-03-13T23:25:09.919Z,7.88
2023-03-13T23:28:12.615Z,7.82
2023-03-13T23:31:21.221Z,8.00
2023-03-13T23:34:23.625Z,8.40
2023-03-13T23:37:25.987Z,8.63
2023-03-13T23:40:29.033Z,7.72
2023-03-13T23:43:31.497Z,9.57
2023-03-13T23:46:34.217Z,10.35
2023-03-13T23:49:36.528Z,6.47
2023-03-13T23:52:39.354Z,7.10
2023-03-13T23:55:41.698Z,7.43
2023-03-13T23:58:44.174Z,7.38
